sensor_id;sensor_type;location;lat;lon;timestamp;P1;durP1;ratioP1;P2;durP2;ratioP2
49730;SDS011;35622;52.008;5.426;2022-11-20T00:00:25;19.27;;;10.40;;
49730;SDS011;35622;52.008;5.426;2022-11-20T00:02:50;18.97;;;10.93;;
49730;SDS011;35622;52.008;5.426;2022-11-20T00:05:16;21.20;;;10.63;;
49730;SDS011;35622;52.008;5.426;2022-11-20T00:07:42;19.67;;;10.20;;
49730;SDS011;35622;52.008;5.426;2022-11-20T00:10:07;17.37;;;9.80;;
49730;SDS011;35622;52.008;5.426;2022-11-20T00:12:33;15.70;;;9.80;;
49730;SDS011;35622;52.008;5.426;2022-11-20T00:14:58;17.40;;;10.37;;
49730;SDS011;35622;52.008;5.426;2022-11-20T00:17:24;16.73;;;9.87;;
49730;SDS011;35622;52.008;5.426;2022-11-20T00:19:49;15.87;;;9.73;;
49730;SDS011;35622;52.008;5.426;2022-11-20T00:22:15;20.23;;;10.73;;
49730;SDS011;35622;52.008;5.426;2022-11-20T00:24:40;18.93;;;10.80;;
49730;SDS011;35622;52.008;5.426;2022-11-20T00:27:06;18.47;;;9.50;;
49730;SDS011;35622;52.008;5.426;2022-11-20T00:29:32;20.60;;;10.73;;
49730;SDS011;35622;52.008;5.426;2022-11-20T00:31:57;16.67;;;9.80;;
49730;SDS011;35622;52.008;5.426;2022-11-20T00:34:23;16.47;;;9.50;;
49730;SDS011;35622;52.008;5.426;2022-11-20T00:36:48;15.33;;;9.57;;
49730;SDS011;35622;52.008;5.426;2022-11-20T00:39:14;17.77;;;9.53;;
49730;SDS011;35622;52.008;5.426;2022-11-20T00:41:39;15.70;;;9.47;;
49730;SDS011;35622;52.008;5.426;2022-11-20T00:44:05;18.23;;;9.80;;
49730;SDS011;35622;52.008;5.426;2022-11-20T00:46:30;19.37;;;10.00;;
49730;SDS011;35622;52.008;5.426;2022-11-20T00:48:56;15.20;;;9.50;;
49730;SDS011;35622;52.008;5.426;2022-11-20T00:51:22;20.13;;;10.87;;
49730;SDS011;35622;52.008;5.426;2022-11-20T00:53:49;17.57;;;10.20;;
49730;SDS011;35622;52.008;5.426;2022-11-20T00:56:16;17.73;;;10.70;;
49730;SDS011;35622;52.008;5.426;2022-11-20T00:58:44;17.60;;;10.53;;
49730;SDS011;35622;52.008;5.426;2022-11-20T01:01:15;15.87;;;9.93;;
49730;SDS011;35622;52.008;5.426;2022-11-20T01:03:43;17.43;;;10.70;;
49730;SDS011;35622;52.008;5.426;2022-11-20T01:06:13;19.80;;;10.10;;
49730;SDS011;35622;52.008;5.426;2022-11-20T01:08:44;17.03;;;10.13;;
49730;SDS011;35622;52.008;5.426;2022-11-20T01:11:14;19.50;;;10.43;;
49730;SDS011;35622;52.008;5.426;2022-11-20T01:13:41;18.73;;;10.13;;
49730;SDS011;35622;52.008;5.426;2022-11-20T01:16:12;19.17;;;10.30;;
49730;SDS011;35622;52.008;5.426;2022-11-20T01:18:41;16.87;;;9.90;;
49730;SDS011;35622;52.008;5.426;2022-11-20T01:21:09;16.80;;;9.40;;
49730;SDS011;35622;52.008;5.426;2022-11-20T01:23:45;18.10;;;10.10;;
49730;SDS011;35622;52.008;5.426;2022-11-20T01:26:13;18.33;;;10.03;;
49730;SDS011;35622;52.008;5.426;2022-11-20T01:28:42;21.53;;;9.60;;
49730;SDS011;35622;52.008;5.426;2022-11-20T01:31:12;19.63;;;11.07;;
49730;SDS011;35622;52.008;5.426;2022-11-20T01:33:40;17.17;;;8.90;;
49730;SDS011;35622;52.008;5.426;2022-11-20T01:36:06;17.70;;;9.87;;
49730;SDS011;35622;52.008;5.426;2022-11-20T01:38:32;17.50;;;9.87;;
49730;SDS011;35622;52.008;5.426;2022-11-20T01:40:58;18.27;;;10.03;;
49730;SDS011;35622;52.008;5.426;2022-11-20T01:43:24;16.73;;;10.17;;
49730;SDS011;35622;52.008;5.426;2022-11-20T01:48:41;16.67;;;10.13;;
49730;SDS011;35622;52.008;5.426;2022-11-20T01:54:05;17.33;;;9.70;;
49730;SDS011;35622;52.008;5.426;2022-11-20T01:56:37;16.43;;;10.00;;
49730;SDS011;35622;52.008;5.426;2022-11-20T01:59:07;15.83;;;9.60;;
49730;SDS011;35622;52.008;5.426;2022-11-20T02:01:35;17.67;;;9.90;;
49730;SDS011;35622;52.008;5.426;2022-11-20T02:04:01;19.17;;;10.43;;
49730;SDS011;35622;52.008;5.426;2022-11-20T02:06:41;16.93;;;10.47;;
49730;SDS011;35622;52.008;5.426;2022-11-20T02:09:10;16.87;;;9.70;;
49730;SDS011;35622;52.008;5.426;2022-11-20T02:11:36;17.13;;;10.07;;
49730;SDS011;35622;52.008;5.426;2022-11-20T02:14:02;20.60;;;10.30;;
49730;SDS011;35622;52.008;5.426;2022-11-20T02:16:29;21.10;;;11.20;;
49730;SDS011;35622;52.008;5.426;2022-11-20T02:18:59;18.53;;;10.60;;
49730;SDS011;35622;52.008;5.426;2022-11-20T02:22:01;20.53;;;11.67;;
49730;SDS011;35622;52.008;5.426;2022-11-20T02:24:23;16.83;;;10.00;;
49730;SDS011;35622;52.008;5.426;2022-11-20T02:26:51;18.23;;;10.60;;
49730;SDS011;35622;52.008;5.426;2022-11-20T02:32:06;20.70;;;10.73;;
49730;SDS011;35622;52.008;5.426;2022-11-20T02:34:31;18.20;;;10.50;;
49730;SDS011;35622;52.008;5.426;2022-11-20T02:36:57;17.93;;;10.27;;
49730;SDS011;35622;52.008;5.426;2022-11-20T02:39:25;17.23;;;10.37;;
49730;SDS011;35622;52.008;5.426;2022-11-20T02:41:55;14.80;;;9.33;;
49730;SDS011;35622;52.008;5.426;2022-11-20T02:44:22;16.27;;;9.23;;
49730;SDS011;35622;52.008;5.426;2022-11-20T02:46:47;17.70;;;9.67;;
49730;SDS011;35622;52.008;5.426;2022-11-20T02:49:13;17.10;;;9.73;;
49730;SDS011;35622;52.008;5.426;2022-11-20T02:51:38;19.20;;;10.03;;
49730;SDS011;35622;52.008;5.426;2022-11-20T02:54:04;19.23;;;10.87;;
49730;SDS011;35622;52.008;5.426;2022-11-20T02:56:30;18.47;;;10.30;;
49730;SDS011;35622;52.008;5.426;2022-11-20T02:58:55;21.53;;;10.37;;
49730;SDS011;35622;52.008;5.426;2022-11-20T03:01:21;17.70;;;9.43;;
49730;SDS011;35622;52.008;5.426;2022-11-20T03:03:47;17.03;;;10.20;;
49730;SDS011;35622;52.008;5.426;2022-11-20T03:06:13;17.87;;;10.00;;
49730;SDS011;35622;52.008;5.426;2022-11-20T03:08:40;16.73;;;10.23;;
49730;SDS011;35622;52.008;5.426;2022-11-20T03:11:07;18.70;;;10.53;;
49730;SDS011;35622;52.008;5.426;2022-11-20T03:13:33;19.13;;;10.27;;
49730;SDS011;35622;52.008;5.426;2022-11-20T03:16:12;19.67;;;10.80;;
49730;SDS011;35622;52.008;5.426;2022-11-20T03:18:40;17.43;;;9.80;;
49730;SDS011;35622;52.008;5.426;2022-11-20T03:21:07;16.93;;;10.17;;
49730;SDS011;35622;52.008;5.426;2022-11-20T03:23:34;18.73;;;9.87;;
49730;SDS011;35622;52.008;5.426;2022-11-20T03:26:07;17.80;;;9.60;;
49730;SDS011;35622;52.008;5.426;2022-11-20T03:28:33;20.47;;;9.97;;
49730;SDS011;35622;52.008;5.426;2022-11-20T03:30:59;19.50;;;10.47;;
49730;SDS011;35622;52.008;5.426;2022-11-20T03:33:33;17.93;;;10.40;;
49730;SDS011;35622;52.008;5.426;2022-11-20T03:36:03;18.73;;;10.50;;
49730;SDS011;35622;52.008;5.426;2022-11-20T03:38:30;19.30;;;10.70;;
49730;SDS011;35622;52.008;5.426;2022-11-20T03:41:00;18.90;;;10.30;;
49730;SDS011;35622;52.008;5.426;2022-11-20T03:43:30;20.13;;;10.43;;
49730;SDS011;35622;52.008;5.426;2022-11-20T03:45:56;17.67;;;9.67;;
49730;SDS011;35622;52.008;5.426;2022-11-20T03:48:22;20.60;;;9.90;;
49730;SDS011;35622;52.008;5.426;2022-11-20T03:50:48;18.00;;;10.73;;
49730;SDS011;35622;52.008;5.426;2022-11-20T03:53:14;19.10;;;10.23;;
49730;SDS011;35622;52.008;5.426;2022-11-20T03:55:40;17.67;;;10.87;;
49730;SDS011;35622;52.008;5.426;2022-11-20T03:58:06;20.30;;;9.93;;
49730;SDS011;35622;52.008;5.426;2022-11-20T04:00:31;18.63;;;10.70;;
49730;SDS011;35622;52.008;5.426;2022-11-20T04:02:57;18.47;;;10.50;;
49730;SDS011;35622;52.008;5.426;2022-11-20T04:05:24;18.90;;;11.13;;
49730;SDS011;35622;52.008;5.426;2022-11-20T04:07:50;23.63;;;11.87;;
49730;SDS011;35622;52.008;5.426;2022-11-20T04:10:15;21.90;;;11.63;;
49730;SDS011;35622;52.008;5.426;2022-11-20T04:12:41;21.90;;;11.07;;
49730;SDS011;35622;52.008;5.426;2022-11-20T04:15:06;19.17;;;11.00;;
49730;SDS011;35622;52.008;5.426;2022-11-20T04:17:32;22.80;;;11.63;;
49730;SDS011;35622;52.008;5.426;2022-11-20T04:19:58;21.77;;;11.73;;
49730;SDS011;35622;52.008;5.426;2022-11-20T04:22:23;19.30;;;10.10;;
49730;SDS011;35622;52.008;5.426;2022-11-20T04:24:49;18.23;;;10.80;;
49730;SDS011;35622;52.008;5.426;2022-11-20T04:27:14;19.13;;;11.30;;
49730;SDS011;35622;52.008;5.426;2022-11-20T04:29:40;18.23;;;10.03;;
49730;SDS011;35622;52.008;5.426;2022-11-20T04:32:05;20.40;;;10.80;;
49730;SDS011;35622;52.008;5.426;2022-11-20T04:34:31;18.40;;;10.50;;
49730;SDS011;35622;52.008;5.426;2022-11-20T04:36:56;20.40;;;11.20;;
49730;SDS011;35622;52.008;5.426;2022-11-20T04:39:22;18.33;;;10.07;;
49730;SDS011;35622;52.008;5.426;2022-11-20T04:41:48;21.33;;;10.80;;
49730;SDS011;35622;52.008;5.426;2022-11-20T04:44:33;21.10;;;10.60;;
49730;SDS011;35622;52.008;5.426;2022-11-20T04:46:59;18.83;;;10.47;;
49730;SDS011;35622;52.008;5.426;2022-11-20T04:49:24;17.53;;;9.83;;
49730;SDS011;35622;52.008;5.426;2022-11-20T04:51:52;19.67;;;9.53;;
49730;SDS011;35622;52.008;5.426;2022-11-20T04:54:18;18.83;;;10.43;;
49730;SDS011;35622;52.008;5.426;2022-11-20T04:56:46;19.57;;;10.67;;
49730;SDS011;35622;52.008;5.426;2022-11-20T04:59:13;18.43;;;9.73;;
49730;SDS011;35622;52.008;5.426;2022-11-20T05:01:39;18.77;;;10.03;;
49730;SDS011;35622;52.008;5.426;2022-11-20T05:04:04;15.13;;;9.40;;
49730;SDS011;35622;52.008;5.426;2022-11-20T05:06:30;20.83;;;11.10;;
49730;SDS011;35622;52.008;5.426;2022-11-20T05:08:56;17.63;;;10.40;;
49730;SDS011;35622;52.008;5.426;2022-11-20T05:11:22;18.73;;;10.63;;
49730;SDS011;35622;52.008;5.426;2022-11-20T05:13:49;20.20;;;10.60;;
49730;SDS011;35622;52.008;5.426;2022-11-20T05:16:20;17.00;;;10.50;;
49730;SDS011;35622;52.008;5.426;2022-11-20T05:18:47;19.03;;;10.60;;
49730;SDS011;35622;52.008;5.426;2022-11-20T05:21:13;16.93;;;9.90;;
49730;SDS011;35622;52.008;5.426;2022-11-20T05:23:39;17.87;;;10.33;;
49730;SDS011;35622;52.008;5.426;2022-11-20T05:26:06;20.63;;;10.67;;
49730;SDS011;35622;52.008;5.426;2022-11-20T05:28:36;19.90;;;10.00;;
49730;SDS011;35622;52.008;5.426;2022-11-20T05:31:06;17.73;;;10.13;;
49730;SDS011;35622;52.008;5.426;2022-11-20T05:33:33;17.33;;;10.07;;
49730;SDS011;35622;52.008;5.426;2022-11-20T05:35:59;15.87;;;9.60;;
49730;SDS011;35622;52.008;5.426;2022-11-20T05:38:25;19.40;;;10.40;;
49730;SDS011;35622;52.008;5.426;2022-11-20T05:40:51;15.37;;;9.53;;
49730;SDS011;35622;52.008;5.426;2022-11-20T05:43:16;21.27;;;10.23;;
49730;SDS011;35622;52.008;5.426;2022-11-20T05:45:42;17.07;;;9.20;;
49730;SDS011;35622;52.008;5.426;2022-11-20T05:48:07;18.80;;;9.90;;
49730;SDS011;35622;52.008;5.426;2022-11-20T05:50:33;15.83;;;9.20;;
49730;SDS011;35622;52.008;5.426;2022-11-20T05:52:59;16.97;;;9.40;;
49730;SDS011;35622;52.008;5.426;2022-11-20T05:55:25;18.83;;;9.93;;
49730;SDS011;35622;52.008;5.426;2022-11-20T05:57:54;17.33;;;9.97;;
49730;SDS011;35622;52.008;5.426;2022-11-20T06:00:20;18.43;;;9.60;;
49730;SDS011;35622;52.008;5.426;2022-11-20T06:02:46;16.30;;;9.60;;
49730;SDS011;35622;52.008;5.426;2022-11-20T06:05:11;17.90;;;9.40;;
49730;SDS011;35622;52.008;5.426;2022-11-20T06:07:37;19.47;;;10.10;;
49730;SDS011;35622;52.008;5.426;2022-11-20T06:10:02;18.37;;;10.10;;
49730;SDS011;35622;52.008;5.426;2022-11-20T06:12:28;18.67;;;10.10;;
49730;SDS011;35622;52.008;5.426;2022-11-20T06:14:55;17.87;;;9.87;;
49730;SDS011;35622;52.008;5.426;2022-11-20T06:17:21;19.23;;;11.00;;
49730;SDS011;35622;52.008;5.426;2022-11-20T06:19:46;17.50;;;9.97;;
49730;SDS011;35622;52.008;5.426;2022-11-20T06:22:12;18.07;;;10.13;;
49730;SDS011;35622;52.008;5.426;2022-11-20T06:24:37;15.93;;;9.53;;
49730;SDS011;35622;52.008;5.426;2022-11-20T06:27:03;16.87;;;9.47;;
49730;SDS011;35622;52.008;5.426;2022-11-20T06:29:28;19.57;;;9.90;;
49730;SDS011;35622;52.008;5.426;2022-11-20T06:31:54;16.87;;;9.13;;
49730;SDS011;35622;52.008;5.426;2022-11-20T06:34:20;19.80;;;10.73;;
49730;SDS011;35622;52.008;5.426;2022-11-20T06:36:45;24.63;;;14.13;;
49730;SDS011;35622;52.008;5.426;2022-11-20T06:39:11;23.70;;;13.73;;
49730;SDS011;35622;52.008;5.426;2022-11-20T06:41:36;29.10;;;14.50;;
49730;SDS011;35622;52.008;5.426;2022-11-20T06:44:03;25.97;;;13.43;;
49730;SDS011;35622;52.008;5.426;2022-11-20T06:46:29;24.17;;;12.73;;
49730;SDS011;35622;52.008;5.426;2022-11-20T06:48:55;22.13;;;12.40;;
49730;SDS011;35622;52.008;5.426;2022-11-20T06:51:20;18.97;;;11.20;;
49730;SDS011;35622;52.008;5.426;2022-11-20T06:53:46;19.10;;;10.80;;
49730;SDS011;35622;52.008;5.426;2022-11-20T06:56:12;16.43;;;9.30;;
49730;SDS011;35622;52.008;5.426;2022-11-20T06:58:38;24.90;;;12.47;;
49730;SDS011;35622;52.008;5.426;2022-11-20T07:01:04;26.27;;;13.60;;
49730;SDS011;35622;52.008;5.426;2022-11-20T07:03:40;27.63;;;16.17;;
49730;SDS011;35622;52.008;5.426;2022-11-20T07:06:06;31.73;;;15.90;;
49730;SDS011;35622;52.008;5.426;2022-11-20T07:08:32;33.37;;;16.33;;
49730;SDS011;35622;52.008;5.426;2022-11-20T07:10:58;35.83;;;16.63;;
49730;SDS011;35622;52.008;5.426;2022-11-20T07:13:25;30.87;;;15.93;;
49730;SDS011;35622;52.008;5.426;2022-11-20T07:15:52;27.50;;;15.23;;
49730;SDS011;35622;52.008;5.426;2022-11-20T07:18:17;25.57;;;15.13;;
49730;SDS011;35622;52.008;5.426;2022-11-20T07:20:43;23.10;;;12.73;;
49730;SDS011;35622;52.008;5.426;2022-11-20T07:23:08;20.60;;;11.10;;
49730;SDS011;35622;52.008;5.426;2022-11-20T07:25:34;19.97;;;11.47;;
49730;SDS011;35622;52.008;5.426;2022-11-20T07:27:59;17.97;;;10.43;;
49730;SDS011;35622;52.008;5.426;2022-11-20T07:30:26;17.37;;;10.47;;
49730;SDS011;35622;52.008;5.426;2022-11-20T07:32:52;16.43;;;10.17;;
49730;SDS011;35622;52.008;5.426;2022-11-20T07:35:19;16.90;;;9.93;;
49730;SDS011;35622;52.008;5.426;2022-11-20T07:37:45;19.33;;;9.77;;
49730;SDS011;35622;52.008;5.426;2022-11-20T07:40:11;17.03;;;10.43;;
49730;SDS011;35622;52.008;5.426;2022-11-20T07:42:37;18.47;;;10.23;;
49730;SDS011;35622;52.008;5.426;2022-11-20T07:45:03;15.27;;;9.83;;
49730;SDS011;35622;52.008;5.426;2022-11-20T07:47:29;18.60;;;10.57;;
49730;SDS011;35622;52.008;5.426;2022-11-20T07:50:00;20.20;;;11.87;;
49730;SDS011;35622;52.008;5.426;2022-11-20T07:52:25;22.17;;;13.20;;
49730;SDS011;35622;52.008;5.426;2022-11-20T07:54:51;18.40;;;11.57;;
49730;SDS011;35622;52.008;5.426;2022-11-20T07:57:16;18.17;;;11.57;;
49730;SDS011;35622;52.008;5.426;2022-11-20T07:59:42;17.33;;;11.23;;
49730;SDS011;35622;52.008;5.426;2022-11-20T08:02:09;17.53;;;10.97;;
49730;SDS011;35622;52.008;5.426;2022-11-20T08:04:35;19.00;;;11.83;;
49730;SDS011;35622;52.008;5.426;2022-11-20T08:07:01;16.80;;;10.80;;
49730;SDS011;35622;52.008;5.426;2022-11-20T08:09:27;17.23;;;11.03;;
49730;SDS011;35622;52.008;5.426;2022-11-20T08:11:53;17.63;;;11.60;;
49730;SDS011;35622;52.008;5.426;2022-11-20T08:14:38;18.03;;;10.80;;
49730;SDS011;35622;52.008;5.426;2022-11-20T08:17:03;16.17;;;10.10;;
49730;SDS011;35622;52.008;5.426;2022-11-20T08:19:29;18.60;;;11.13;;
49730;SDS011;35622;52.008;5.426;2022-11-20T08:21:54;19.53;;;12.07;;
49730;SDS011;35622;52.008;5.426;2022-11-20T08:24:20;19.97;;;12.37;;
49730;SDS011;35622;52.008;5.426;2022-11-20T08:26:46;17.20;;;10.70;;
49730;SDS011;35622;52.008;5.426;2022-11-20T08:29:11;19.17;;;11.53;;
49730;SDS011;35622;52.008;5.426;2022-11-20T08:31:37;19.07;;;11.27;;
49730;SDS011;35622;52.008;5.426;2022-11-20T08:34:03;19.97;;;12.13;;
49730;SDS011;35622;52.008;5.426;2022-11-20T08:36:28;20.33;;;11.57;;
49730;SDS011;35622;52.008;5.426;2022-11-20T08:38:57;19.23;;;12.23;;
49730;SDS011;35622;52.008;5.426;2022-11-20T08:41:22;19.23;;;11.37;;
49730;SDS011;35622;52.008;5.426;2022-11-20T08:43:48;17.67;;;10.87;;
49730;SDS011;35622;52.008;5.426;2022-11-20T08:46:22;19.80;;;11.20;;
49730;SDS011;35622;52.008;5.426;2022-11-20T08:48:48;19.50;;;11.77;;
49730;SDS011;35622;52.008;5.426;2022-11-20T08:51:14;19.20;;;12.13;;
49730;SDS011;35622;52.008;5.426;2022-11-20T08:53:40;22.00;;;12.50;;
49730;SDS011;35622;52.008;5.426;2022-11-20T08:56:06;23.50;;;14.10;;
49730;SDS011;35622;52.008;5.426;2022-11-20T08:58:32;21.50;;;13.40;;
49730;SDS011;35622;52.008;5.426;2022-11-20T09:00:57;21.63;;;13.67;;
49730;SDS011;35622;52.008;5.426;2022-11-20T09:03:23;22.90;;;13.93;;
49730;SDS011;35622;52.008;5.426;2022-11-20T09:05:51;22.80;;;14.30;;
49730;SDS011;35622;52.008;5.426;2022-11-20T09:08:25;21.67;;;14.03;;
49730;SDS011;35622;52.008;5.426;2022-11-20T09:10:52;22.60;;;13.97;;
49730;SDS011;35622;52.008;5.426;2022-11-20T09:13:18;23.73;;;14.67;;
49730;SDS011;35622;52.008;5.426;2022-11-20T09:15:44;22.83;;;14.60;;
49730;SDS011;35622;52.008;5.426;2022-11-20T09:18:10;23.17;;;15.47;;
49730;SDS011;35622;52.008;5.426;2022-11-20T09:20:35;25.57;;;15.47;;
49730;SDS011;35622;52.008;5.426;2022-11-20T09:23:01;26.07;;;16.63;;
49730;SDS011;35622;52.008;5.426;2022-11-20T09:25:28;23.43;;;15.30;;
49730;SDS011;35622;52.008;5.426;2022-11-20T09:27:57;27.37;;;16.47;;
49730;SDS011;35622;52.008;5.426;2022-11-20T09:30:23;24.17;;;15.67;;
49730;SDS011;35622;52.008;5.426;2022-11-20T09:32:49;24.97;;;16.33;;
49730;SDS011;35622;52.008;5.426;2022-11-20T09:35:15;26.03;;;15.27;;
49730;SDS011;35622;52.008;5.426;2022-11-20T09:37:41;24.83;;;15.47;;
49730;SDS011;35622;52.008;5.426;2022-11-20T09:40:08;23.30;;;15.47;;
49730;SDS011;35622;52.008;5.426;2022-11-20T09:50:56;23.33;;;15.37;;
49730;SDS011;35622;52.008;5.426;2022-11-20T09:57:01;24.77;;;15.33;;
49730;SDS011;35622;52.008;5.426;2022-11-20T09:59:43;23.00;;;15.10;;
49730;SDS011;35622;52.008;5.426;2022-11-20T10:05:03;23.10;;;15.20;;
49730;SDS011;35622;52.008;5.426;2022-11-20T10:16:02;25.03;;;16.67;;
49730;SDS011;35622;52.008;5.426;2022-11-20T10:21:52;22.30;;;15.70;;
49730;SDS011;35622;52.008;5.426;2022-11-20T10:29:42;27.07;;;16.00;;
49730;SDS011;35622;52.008;5.426;2022-11-20T10:32:19;27.07;;;17.43;;
49730;SDS011;35622;52.008;5.426;2022-11-20T10:37:40;26.07;;;16.27;;
49730;SDS011;35622;52.008;5.426;2022-11-20T10:40:18;23.77;;;16.40;;
49730;SDS011;35622;52.008;5.426;2022-11-20T10:42:52;26.00;;;16.43;;
49730;SDS011;35622;52.008;5.426;2022-11-20T10:47:50;28.20;;;17.57;;
49730;SDS011;35622;52.008;5.426;2022-11-20T10:50:20;27.63;;;17.77;;
49730;SDS011;35622;52.008;5.426;2022-11-20T10:53:05;26.67;;;17.23;;
49730;SDS011;35622;52.008;5.426;2022-11-20T10:55:46;25.33;;;16.90;;
49730;SDS011;35622;52.008;5.426;2022-11-20T10:58:30;28.97;;;18.07;;
49730;SDS011;35622;52.008;5.426;2022-11-20T11:01:13;26.13;;;17.07;;
49730;SDS011;35622;52.008;5.426;2022-11-20T11:03:44;25.80;;;17.87;;
49730;SDS011;35622;52.008;5.426;2022-11-20T11:09:02;28.50;;;19.03;;
49730;SDS011;35622;52.008;5.426;2022-11-20T11:11:35;30.33;;;19.53;;
49730;SDS011;35622;52.008;5.426;2022-11-20T11:14:07;29.77;;;19.23;;
49730;SDS011;35622;52.008;5.426;2022-11-20T11:16:34;32.73;;;20.27;;
49730;SDS011;35622;52.008;5.426;2022-11-20T11:19:04;31.33;;;19.70;;
49730;SDS011;35622;52.008;5.426;2022-11-20T11:21:30;32.03;;;20.43;;
49730;SDS011;35622;52.008;5.426;2022-11-20T11:23:59;30.47;;;18.47;;
49730;SDS011;35622;52.008;5.426;2022-11-20T11:26:27;32.63;;;19.90;;
49730;SDS011;35622;52.008;5.426;2022-11-20T11:28:54;32.53;;;20.23;;
49730;SDS011;35622;52.008;5.426;2022-11-20T11:31:23;30.80;;;19.30;;
49730;SDS011;35622;52.008;5.426;2022-11-20T11:34:12;34.27;;;20.00;;
49730;SDS011;35622;52.008;5.426;2022-11-20T11:36:39;30.23;;;19.97;;
49730;SDS011;35622;52.008;5.426;2022-11-20T11:39:08;34.73;;;20.67;;
49730;SDS011;35622;52.008;5.426;2022-11-20T11:41:39;36.30;;;21.77;;
49730;SDS011;35622;52.008;5.426;2022-11-20T11:47:01;34.97;;;20.60;;
49730;SDS011;35622;52.008;5.426;2022-11-20T11:49:29;35.83;;;21.60;;
49730;SDS011;35622;52.008;5.426;2022-11-20T11:54:45;35.73;;;21.50;;
49730;SDS011;35622;52.008;5.426;2022-11-20T11:59:44;38.37;;;21.63;;
49730;SDS011;35622;52.008;5.426;2022-11-20T12:02:26;37.37;;;21.43;;
49730;SDS011;35622;52.008;5.426;2022-11-20T12:04:58;36.00;;;20.97;;
49730;SDS011;35622;52.008;5.426;2022-11-20T12:10:54;40.33;;;22.50;;
49730;SDS011;35622;52.008;5.426;2022-11-20T12:15:59;36.47;;;21.83;;
49730;SDS011;35622;52.008;5.426;2022-11-20T12:18:29;37.33;;;21.50;;
49730;SDS011;35622;52.008;5.426;2022-11-20T12:23:50;37.40;;;21.40;;
49730;SDS011;35622;52.008;5.426;2022-11-20T12:26:52;35.07;;;20.87;;
49730;SDS011;35622;52.008;5.426;2022-11-20T12:49:56;40.50;;;22.10;;
49730;SDS011;35622;52.008;5.426;2022-11-20T12:52:48;40.57;;;22.23;;
49730;SDS011;35622;52.008;5.426;2022-11-20T12:57:52;43.93;;;23.70;;
49730;SDS011;35622;52.008;5.426;2022-11-20T13:00:43;39.77;;;21.57;;
49730;SDS011;35622;52.008;5.426;2022-11-20T13:08:39;45.10;;;22.70;;
49730;SDS011;35622;52.008;5.426;2022-11-20T13:18:55;41.63;;;22.17;;
49730;SDS011;35622;52.008;5.426;2022-11-20T13:21:22;42.50;;;21.63;;
49730;SDS011;35622;52.008;5.426;2022-11-20T13:24:04;45.33;;;23.67;;
49730;SDS011;35622;52.008;5.426;2022-11-20T13:29:39;43.00;;;22.17;;
49730;SDS011;35622;52.008;5.426;2022-11-20T13:32:16;43.77;;;23.27;;
49730;SDS011;35622;52.008;5.426;2022-11-20T13:34:52;42.13;;;23.43;;
49730;SDS011;35622;52.008;5.426;2022-11-20T13:40:21;42.87;;;23.30;;
49730;SDS011;35622;52.008;5.426;2022-11-20T13:45:29;41.63;;;22.50;;
49730;SDS011;35622;52.008;5.426;2022-11-20T13:47:56;41.03;;;23.03;;
49730;SDS011;35622;52.008;5.426;2022-11-20T13:50:40;43.23;;;23.50;;
49730;SDS011;35622;52.008;5.426;2022-11-20T13:53:20;43.37;;;23.13;;
49730;SDS011;35622;52.008;5.426;2022-11-20T13:55:59;43.47;;;23.47;;
49730;SDS011;35622;52.008;5.426;2022-11-20T13:58:50;44.97;;;23.70;;
49730;SDS011;35622;52.008;5.426;2022-11-20T14:01:21;40.10;;;22.93;;
49730;SDS011;35622;52.008;5.426;2022-11-20T14:03:49;44.27;;;23.70;;
49730;SDS011;35622;52.008;5.426;2022-11-20T14:06:26;45.00;;;24.80;;
49730;SDS011;35622;52.008;5.426;2022-11-20T14:08:57;44.63;;;23.73;;
49730;SDS011;35622;52.008;5.426;2022-11-20T14:11:28;42.70;;;24.13;;
49730;SDS011;35622;52.008;5.426;2022-11-20T14:13:56;46.13;;;24.47;;
49730;SDS011;35622;52.008;5.426;2022-11-20T14:16:25;43.93;;;23.77;;
49730;SDS011;35622;52.008;5.426;2022-11-20T14:18:53;42.40;;;23.73;;
49730;SDS011;35622;52.008;5.426;2022-11-20T14:21:23;44.63;;;24.43;;
49730;SDS011;35622;52.008;5.426;2022-11-20T14:26:30;42.67;;;22.90;;
49730;SDS011;35622;52.008;5.426;2022-11-20T14:28:56;47.33;;;24.43;;
49730;SDS011;35622;52.008;5.426;2022-11-20T14:31:25;44.53;;;24.63;;
49730;SDS011;35622;52.008;5.426;2022-11-20T14:33:53;42.73;;;23.03;;
49730;SDS011;35622;52.008;5.426;2022-11-20T14:36:21;46.50;;;24.27;;
49730;SDS011;35622;52.008;5.426;2022-11-20T14:38:49;47.73;;;23.73;;
49730;SDS011;35622;52.008;5.426;2022-11-20T14:41:17;45.57;;;24.80;;
49730;SDS011;35622;52.008;5.426;2022-11-20T14:43:45;44.70;;;23.70;;
49730;SDS011;35622;52.008;5.426;2022-11-20T14:46:23;44.83;;;23.50;;
49730;SDS011;35622;52.008;5.426;2022-11-20T14:48:51;43.93;;;24.23;;
49730;SDS011;35622;52.008;5.426;2022-11-20T14:51:58;47.20;;;25.03;;
49730;SDS011;35622;52.008;5.426;2022-11-20T14:54:12;46.27;;;25.70;;
49730;SDS011;35622;52.008;5.426;2022-11-20T14:56:40;45.13;;;24.83;;
49730;SDS011;35622;52.008;5.426;2022-11-20T14:59:07;41.67;;;22.33;;
49730;SDS011;35622;52.008;5.426;2022-11-20T15:01:34;46.87;;;25.47;;
49730;SDS011;35622;52.008;5.426;2022-11-20T15:04:08;46.63;;;24.67;;
49730;SDS011;35622;52.008;5.426;2022-11-20T15:06:35;41.30;;;23.60;;
49730;SDS011;35622;52.008;5.426;2022-11-20T15:09:02;46.17;;;25.60;;
49730;SDS011;35622;52.008;5.426;2022-11-20T15:11:31;42.63;;;23.93;;
49730;SDS011;35622;52.008;5.426;2022-11-20T15:14:01;40.30;;;23.77;;
49730;SDS011;35622;52.008;5.426;2022-11-20T15:16:29;43.90;;;25.57;;
49730;SDS011;35622;52.008;5.426;2022-11-20T15:18:55;44.77;;;25.33;;
49730;SDS011;35622;52.008;5.426;2022-11-20T15:21:21;46.50;;;27.10;;
49730;SDS011;35622;52.008;5.426;2022-11-20T15:23:47;42.87;;;24.80;;
49730;SDS011;35622;52.008;5.426;2022-11-20T15:26:14;46.87;;;25.33;;
49730;SDS011;35622;52.008;5.426;2022-11-20T15:28:46;42.63;;;25.30;;
49730;SDS011;35622;52.008;5.426;2022-11-20T15:31:14;41.47;;;24.17;;
49730;SDS011;35622;52.008;5.426;2022-11-20T15:33:42;44.70;;;25.33;;
49730;SDS011;35622;52.008;5.426;2022-11-20T15:36:08;39.67;;;24.50;;
49730;SDS011;35622;52.008;5.426;2022-11-20T15:38:34;50.83;;;29.60;;
49730;SDS011;35622;52.008;5.426;2022-11-20T15:41:00;49.03;;;27.20;;
49730;SDS011;35622;52.008;5.426;2022-11-20T15:43:25;46.20;;;25.47;;
49730;SDS011;35622;52.008;5.426;2022-11-20T15:45:53;45.97;;;26.13;;
49730;SDS011;35622;52.008;5.426;2022-11-20T15:48:22;40.13;;;24.53;;
49730;SDS011;35622;52.008;5.426;2022-11-20T15:50:53;43.50;;;23.80;;
49730;SDS011;35622;52.008;5.426;2022-11-20T15:53:36;43.33;;;24.70;;
49730;SDS011;35622;52.008;5.426;2022-11-20T15:56:07;45.23;;;24.10;;
49730;SDS011;35622;52.008;5.426;2022-11-20T15:58:36;43.13;;;24.07;;
49730;SDS011;35622;52.008;5.426;2022-11-20T16:01:03;40.27;;;23.87;;
49730;SDS011;35622;52.008;5.426;2022-11-20T16:03:28;39.87;;;23.47;;
49730;SDS011;35622;52.008;5.426;2022-11-20T16:05:54;39.17;;;22.63;;
49730;SDS011;35622;52.008;5.426;2022-11-20T16:08:20;39.20;;;22.47;;
49730;SDS011;35622;52.008;5.426;2022-11-20T16:10:45;35.27;;;22.23;;
49730;SDS011;35622;52.008;5.426;2022-11-20T16:13:12;41.17;;;23.60;;
49730;SDS011;35622;52.008;5.426;2022-11-20T16:15:58;39.30;;;22.00;;
49730;SDS011;35622;52.008;5.426;2022-11-20T16:18:26;37.70;;;22.13;;
49730;SDS011;35622;52.008;5.426;2022-11-20T16:20:52;40.03;;;21.83;;
49730;SDS011;35622;52.008;5.426;2022-11-20T16:23:19;48.97;;;24.27;;